createdAt,value
2018-11-22T00:00:59.619Z,1008.55
2018-11-22T00:01:59.674Z,1008.55
2018-11-22T00:02:59.730Z,1008.56
2018-11-22T00:03:59.783Z,1008.52
2018-11-22T00:04:59.839Z,1008.54
2018-11-22T00:05:59.895Z,1008.50
2018-11-22T00:06:59.951Z,1008.54
2018-11-22T00:08:00.004Z,1008.52
2018-11-22T00:09:00.062Z,1008.46
2018-11-22T00:10:00.117Z,1008.45
2018-11-22T00:11:00.173Z,1008.50
2018-11-22T00:12:00.227Z,1008.47
2018-11-22T00:13:00.282Z,1008.49
2018-11-22T00:14:00.340Z,1008.52
2018-11-22T00:15:00.392Z,1008.52
2018-11-22T00:16:00.449Z,1008.53
2018-11-22T00:17:00.501Z,1008.55
2018-11-22T00:18:00.563Z,1008.53
2018-11-22T00:19:00.616Z,1008.52
2018-11-22T00:20:00.669Z,1008.55
2018-11-22T00:21:00.724Z,1008.53
2018-11-22T00:22:00.780Z,1008.53
2018-11-22T00:23:00.836Z,1008.54
2018-11-22T00:24:00.890Z,1008.53
2018-11-22T00:25:00.947Z,1008.54
2018-11-22T00:26:01.010Z,1008.57
2018-11-22T00:27:01.058Z,1008.57
2018-11-22T00:28:01.111Z,1008.58
2018-11-22T00:29:01.168Z,1008.59
2018-11-22T00:30:01.224Z,1008.58
2018-11-22T00:31:01.279Z,1008.63
2018-11-22T00:32:01.335Z,1008.61
2018-11-22T00:33:01.390Z,1008.63
2018-11-22T00:34:01.445Z,1008.62
2018-11-22T00:35:01.502Z,1008.64
2018-11-22T00:36:01.557Z,1008.64
2018-11-22T00:37:01.650Z,1008.65
2018-11-22T00:38:01.666Z,1008.65
2018-11-22T00:39:01.724Z,1008.68
2018-11-22T00:40:01.778Z,1008.67
2018-11-22T00:41:01.833Z,1008.67
2018-11-22T00:42:01.890Z,1008.72
2018-11-22T00:43:01.945Z,1008.68
2018-11-22T00:44:01.999Z,1008.66
2018-11-22T00:45:02.057Z,1008.67
2018-11-22T00:46:02.114Z,1008.63
2018-11-22T00:47:02.167Z,1008.65
2018-11-22T00:48:02.223Z,1008.65
2018-11-22T00:49:02.277Z,1008.67
2018-11-22T00:50:02.332Z,1008.68
2018-11-22T00:51:02.388Z,1008.67
2018-11-22T00:52:02.442Z,1008.65
2018-11-22T00:53:02.503Z,1008.65
2018-11-22T00:54:02.563Z,1008.61
2018-11-22T00:55:02.611Z,1008.63
2018-11-22T00:56:02.665Z,1008.63
2018-11-22T00:57:02.721Z,1008.67
2018-11-22T00:58:02.775Z,1008.67
2018-11-22T00:59:02.830Z,1008.67
2018-11-22T01:00:02.888Z,1008.66
2018-11-22T01:01:02.941Z,1008.69
2018-11-22T01:02:02.997Z,1008.67
2018-11-22T01:03:03.052Z,1008.67
2018-11-22T01:04:03.107Z,1008.70
2018-11-22T01:05:03.161Z,1008.69
2018-11-22T01:06:03.219Z,1008.73
2018-11-22T01:07:03.273Z,1008.73
2018-11-22T01:08:03.327Z,1008.73
2018-11-22T01:09:03.384Z,1008.75
2018-11-22T01:10:03.441Z,1008.72
2018-11-22T01:11:03.497Z,1008.72
2018-11-22T01:12:03.550Z,1008.70
2018-11-22T01:13:03.605Z,1008.71
2018-11-22T01:14:03.660Z,1008.77
2018-11-22T01:15:03.717Z,1008.80
2018-11-22T01:16:03.770Z,1008.79
2018-11-22T01:17:03.832Z,1008.77
2018-11-22T01:18:03.881Z,1008.77
2018-11-22T01:19:03.938Z,1008.78
2018-11-22T01:20:04.554Z,1008.72
2018-11-22T01:21:04.052Z,1008.79
2018-11-22T01:22:04.102Z,1008.73
2018-11-22T01:23:04.158Z,1008.79
2018-11-22T01:24:04.213Z,1008.74
2018-11-22T01:25:04.267Z,1008.79
2018-11-22T01:26:04.327Z,1008.77
2018-11-22T01:27:04.380Z,1008.77
2018-11-22T01:28:04.439Z,1008.74
2018-11-22T01:29:04.489Z,1008.76
2018-11-22T01:30:04.548Z,1008.77
2018-11-22T01:31:04.611Z,1008.74
2018-11-22T01:32:04.655Z,1008.73
2018-11-22T01:33:04.710Z,1008.74
2018-11-22T01:34:04.770Z,1008.78
2018-11-22T01:35:04.822Z,1008.81
2018-11-22T01:36:04.878Z,1008.78
2018-11-22T01:37:04.931Z,1008.78
2018-11-22T01:38:04.989Z,1008.78
2018-11-22T01:39:05.041Z,1008.76
2018-11-22T01:40:05.096Z,1008.78
2018-11-22T01:41:05.151Z,1008.76
2018-11-22T01:42:05.208Z,1008.81
2018-11-22T01:43:05.264Z,1008.81
2018-11-22T01:44:05.317Z,1008.77
2018-11-22T01:45:05.372Z,1008.78
2018-11-22T01:46:05.428Z,1008.77
2018-11-22T01:47:05.483Z,1008.74
2018-11-22T01:48:05.539Z,1008.78
2018-11-22T01:49:06.128Z,1008.75
2018-11-22T01:50:05.650Z,1008.78
2018-11-22T01:51:05.706Z,1008.78
2018-11-22T01:52:05.761Z,1008.81
2018-11-22T01:53:05.815Z,1008.83
2018-11-22T01:54:05.873Z,1008.83
2018-11-22T01:55:05.925Z,1008.83
2018-11-22T01:56:05.982Z,1008.82
2018-11-22T01:57:06.037Z,1008.82
2018-11-22T01:58:06.091Z,1008.79
2018-11-22T01:59:06.148Z,1008.81
2018-11-22T02:00:06.202Z,1008.79
2018-11-22T02:01:06.261Z,1008.83
2018-11-22T02:02:06.311Z,1008.84
2018-11-22T02:03:06.371Z,1008.84
2018-11-22T02:04:06.422Z,1008.82
2018-11-22T02:05:06.477Z,1008.85
2018-11-22T02:06:06.532Z,1008.86
2018-11-22T02:07:06.589Z,1008.86
2018-11-22T02:08:06.643Z,1008.86
2018-11-22T02:09:06.698Z,1008.86
2018-11-22T02:10:06.753Z,1008.84
2018-11-22T02:11:06.809Z,1008.83
2018-11-22T02:12:06.863Z,1008.84
2018-11-22T02:13:06.919Z,1008.83
2018-11-22T02:14:06.974Z,1008.81
2018-11-22T02:15:07.030Z,1008.80
2018-11-22T02:16:07.084Z,1008.81
2018-11-22T02:17:07.140Z,1008.82
2018-11-22T02:18:07.200Z,1008.85
2018-11-22T02:19:07.251Z,1008.81
2018-11-22T02:20:07.305Z,1008.83
2018-11-22T02:21:07.360Z,1008.83
2018-11-22T02:22:07.416Z,1008.84
2018-11-22T02:23:07.471Z,1008.81
2018-11-22T02:24:07.525Z,1008.84
2018-11-22T02:25:07.580Z,1008.88
2018-11-22T02:26:07.636Z,1008.85
2018-11-22T02:27:07.692Z,1008.86
2018-11-22T02:28:07.745Z,1008.83
2018-11-22T02:29:07.802Z,1008.83
2018-11-22T02:30:07.857Z,1008.83
2018-11-22T02:31:07.914Z,1008.84
2018-11-22T02:32:07.966Z,1008.89
2018-11-22T02:33:08.022Z,1008.87
2018-11-22T02:34:08.077Z,1008.85
2018-11-22T02:35:08.134Z,1008.83
2018-11-22T02:36:08.186Z,1008.81
2018-11-22T02:37:08.243Z,1008.86
2018-11-22T02:38:08.298Z,1008.85
2018-11-22T02:39:08.353Z,1008.86
2018-11-22T02:40:08.407Z,1008.87
2018-11-22T02:41:08.466Z,1008.87
2018-11-22T02:42:08.520Z,1008.86
2018-11-22T02:43:08.575Z,1008.84
2018-11-22T02:44:08.627Z,1008.84
2018-11-22T02:45:08.685Z,1008.88
2018-11-22T02:46:08.739Z,1008.85
2018-11-22T02:47:08.794Z,1008.84
2018-11-22T02:48:08.999Z,1008.85
2018-11-22T02:49:08.902Z,1008.85
2018-11-22T02:50:08.959Z,1008.80
2018-11-22T02:51:09.014Z,1008.83
2018-11-22T02:52:09.069Z,1008.82
2018-11-22T02:53:09.124Z,1008.81
2018-11-22T02:54:09.179Z,1008.86
2018-11-22T02:55:09.236Z,1008.85
2018-11-22T02:56:09.290Z,1008.82
2018-11-22T02:57:09.343Z,1008.82
2018-11-22T02:58:09.397Z,1008.83
2018-11-22T02:59:09.455Z,1008.82
2018-11-22T03:00:09.509Z,1008.83
2018-11-22T03:01:09.564Z,1008.80
2018-11-22T03:02:09.622Z,1008.83
2018-11-22T03:03:09.673Z,1008.84
2018-11-22T03:04:09.728Z,1008.82
2018-11-22T03:05:09.783Z,1008.84
2018-11-22T03:06:09.839Z,1008.83
2018-11-22T03:07:09.894Z,1008.84
2018-11-22T03:08:09.948Z,1008.82
2018-11-22T03:09:10.004Z,1008.80
2018-11-22T03:10:10.059Z,1008.80
2018-11-22T03:11:10.113Z,1008.79
2018-11-22T03:12:10.168Z,1008.78
2018-11-22T03:13:10.224Z,1008.77
2018-11-22T03:14:10.279Z,1008.78
2018-11-22T03:15:10.334Z,1008.77
2018-11-22T03:16:10.389Z,1008.80
2018-11-22T03:17:10.452Z,1008.78
2018-11-22T03:18:10.528Z,1008.78
2018-11-22T03:19:10.594Z,1008.79
2018-11-22T03:20:10.646Z,1008.77
2018-11-22T03:21:10.673Z,1008.76
2018-11-22T03:22:10.721Z,1008.74
2018-11-22T03:23:10.777Z,1008.78
2018-11-22T03:24:10.832Z,1008.75
2018-11-22T03:25:10.895Z,1008.75
2018-11-22T03:26:10.943Z,1008.76
2018-11-22T03:27:11.004Z,1008.78
2018-11-22T03:28:11.052Z,1008.79
2018-11-22T03:29:11.108Z,1008.80
2018-11-22T03:30:30.368Z,1008.71
2018-11-22T03:31:11.228Z,1008.77
2018-11-22T03:32:11.273Z,1008.75
2018-11-22T03:33:11.331Z,1008.72
2018-11-22T03:34:11.386Z,1008.73
2018-11-22T03:35:11.440Z,1008.76
2018-11-22T03:36:11.494Z,1008.76
2018-11-22T03:37:11.551Z,1008.76
2018-11-22T03:38:11.608Z,1008.72
2018-11-22T03:39:11.663Z,1008.74
2018-11-22T03:40:11.717Z,1008.74
2018-11-22T03:41:11.776Z,1008.76
2018-11-22T03:42:11.829Z,1008.71
2018-11-22T03:43:11.884Z,1008.74
2018-11-22T03:44:11.940Z,1008.71
2018-11-22T03:45:11.995Z,1008.73
2018-11-22T03:46:12.050Z,1008.72
2018-11-22T03:47:12.106Z,1008.73
2018-11-22T03:48:12.161Z,1008.75
2018-11-22T03:49:12.217Z,1008.73
2018-11-22T03:50:12.273Z,1008.74
2018-11-22T03:51:12.328Z,1008.76
2018-11-22T03:52:12.385Z,1008.75
2018-11-22T03:53:12.438Z,1008.75
2018-11-22T03:54:12.495Z,1008.76
2018-11-22T03:55:12.549Z,1008.73
2018-11-22T03:56:12.604Z,1008.75
2018-11-22T03:57:12.661Z,1008.77
2018-11-22T03:58:12.725Z,1008.74
2018-11-22T03:59:12.771Z,1008.74
2018-11-22T04:00:12.826Z,1008.74
2018-11-22T04:01:12.884Z,1008.75
2018-11-22T04:02:12.941Z,1008.75
2018-11-22T04:03:12.994Z,1008.75
2018-11-22T04:04:13.048Z,1008.75
2018-11-22T04:05:13.111Z,1008.77
2018-11-22T04:06:13.159Z,1008.73
2018-11-22T04:07:13.215Z,1008.74
2018-11-22T04:08:13.276Z,1008.75
2018-11-22T04:09:13.335Z,1008.75
2018-11-22T04:10:13.380Z,1008.75
2018-11-22T04:11:13.436Z,1008.79
2018-11-22T04:12:13.491Z,1008.76
2018-11-22T04:13:13.546Z,1008.73
2018-11-22T04:14:13.609Z,1008.73
2018-11-22T04:15:13.657Z,1008.75
2018-11-22T04:16:13.712Z,1008.75
2018-11-22T04:17:13.767Z,1008.75
2018-11-22T04:18:13.826Z,1008.72
2018-11-22T04:19:13.878Z,1008.73
2018-11-22T04:20:13.934Z,1008.73
2018-11-22T04:21:13.987Z,1008.72
2018-11-22T04:22:14.043Z,1008.70
2018-11-22T04:23:14.099Z,1008.67
2018-11-22T04:24:14.155Z,1008.66
2018-11-22T04:25:14.211Z,1008.69
2018-11-22T04:26:14.265Z,1008.70
2018-11-22T04:27:14.321Z,1008.70
2018-11-22T04:28:14.374Z,1008.70
2018-11-22T04:29:14.742Z,1008.71
2018-11-22T04:30:14.487Z,1008.70
2018-11-22T04:31:14.543Z,1008.73
2018-11-22T04:32:14.598Z,1008.71
2018-11-22T04:33:14.653Z,1008.68
2018-11-22T04:34:14.708Z,1008.70
2018-11-22T04:35:14.765Z,1008.68
2018-11-22T04:36:14.818Z,1008.66
2018-11-22T04:37:14.875Z,1008.68
2018-11-22T04:38:14.930Z,1008.68
2018-11-22T04:39:14.986Z,1008.67
2018-11-22T04:40:15.040Z,1008.69
2018-11-22T04:41:15.096Z,1008.68
2018-11-22T04:42:15.150Z,1008.73
2018-11-22T04:43:15.205Z,1008.71
2018-11-22T04:44:15.263Z,1008.73
2018-11-22T04:45:15.320Z,1008.72
2018-11-22T04:46:15.390Z,1008.76
2018-11-22T04:47:15.428Z,1008.74
2018-11-22T04:48:15.483Z,1008.74
2018-11-22T04:49:15.538Z,1008.76
2018-11-22T04:50:15.594Z,1008.78
2018-11-22T04:51:15.649Z,1008.75
2018-11-22T04:52:15.703Z,1008.74
2018-11-22T04:53:15.759Z,1008.74
2018-11-22T04:54:15.815Z,1008.73
2018-11-22T04:55:16.655Z,1008.74
2018-11-22T04:56:16.403Z,1008.71
2018-11-22T04:57:15.983Z,1008.73
2018-11-22T04:58:16.035Z,1008.68
2018-11-22T04:59:16.123Z,1008.70
2018-11-22T05:00:16.234Z,1008.73
2018-11-22T05:01:16.200Z,1008.69
2018-11-22T05:02:16.260Z,1008.71
2018-11-22T05:03:16.312Z,1008.72
2018-11-22T05:04:16.367Z,1008.73
2018-11-22T05:05:16.423Z,1008.71
2018-11-22T05:06:16.477Z,1008.71
2018-11-22T05:07:16.533Z,1008.70
2018-11-22T05:08:16.586Z,1008.69
2018-11-22T05:09:16.642Z,1008.69
2018-11-22T05:10:16.699Z,1008.66
2018-11-22T05:11:16.758Z,1008.66
2018-11-22T05:12:16.807Z,1008.67
2018-11-22T05:13:16.862Z,1008.67
2018-11-22T05:14:16.918Z,1008.69
2018-11-22T05:15:16.971Z,1008.71
2018-11-22T05:16:17.027Z,1008.73
2018-11-22T05:17:17.081Z,1008.73
2018-11-22T05:18:17.138Z,1008.70
2018-11-22T05:19:17.192Z,1008.70
2018-11-22T05:20:17.250Z,1008.73
2018-11-22T05:21:17.303Z,1008.70
2018-11-22T05:22:17.359Z,1008.68
2018-11-22T05:23:17.413Z,1008.73
2018-11-22T05:24:17.467Z,1008.73
2018-11-22T05:25:17.522Z,1008.69
2018-11-22T05:26:17.578Z,1008.76
2018-11-22T05:27:17.634Z,1008.76
2018-11-22T05:28:17.685Z,1008.77
2018-11-22T05:29:17.741Z,1008.77
2018-11-22T05:30:17.805Z,1008.77
2018-11-22T05:31:17.851Z,1008.79
2018-11-22T05:32:17.905Z,1008.77
2018-11-22T05:33:17.960Z,1008.83
2018-11-22T05:34:18.016Z,1008.77
2018-11-22T05:35:18.071Z,1008.80
2018-11-22T05:36:18.125Z,1008.76
2018-11-22T05:37:19.107Z,1008.72
2018-11-22T05:38:18.235Z,1008.72
2018-11-22T05:39:18.289Z,1008.70
2018-11-22T05:40:18.344Z,1008.73
2018-11-22T05:41:18.399Z,1008.69
2018-11-22T05:42:18.454Z,1008.76
2018-11-22T05:43:18.510Z,1008.77
2018-11-22T05:44:18.962Z,1008.79
2018-11-22T05:45:18.617Z,1008.78
2018-11-22T05:46:18.735Z,1008.77
2018-11-22T05:47:18.728Z,1008.77
2018-11-22T05:48:18.788Z,1008.76
2018-11-22T05:49:18.837Z,1008.76
2018-11-22T05:50:18.893Z,1008.80
2018-11-22T05:51:18.948Z,1008.77
2018-11-22T05:52:19.003Z,1008.74
2018-11-22T05:53:19.060Z,1008.75
2018-11-22T05:54:19.112Z,1008.76
2018-11-22T05:55:19.167Z,1008.76
2018-11-22T05:56:19.222Z,1008.78
2018-11-22T05:57:19.276Z,1008.78
2018-11-22T05:58:19.331Z,1008.78
2018-11-22T05:59:19.385Z,1008.79
2018-11-22T06:00:19.441Z,1008.73
2018-11-22T06:01:19.495Z,1008.71
2018-11-22T06:02:19.550Z,1008.73
2018-11-22T06:03:19.606Z,1008.75
2018-11-22T06:04:19.659Z,1008.72
2018-11-22T06:05:19.714Z,1008.73
2018-11-22T06:06:19.800Z,1008.75
2018-11-22T06:07:19.824Z,1008.75
2018-11-22T06:08:19.881Z,1008.74
2018-11-22T06:09:19.933Z,1008.71
2018-11-22T06:10:19.991Z,1008.74
2018-11-22T06:11:20.045Z,1008.74
2018-11-22T06:12:20.099Z,1008.74
2018-11-22T06:13:20.188Z,1008.72
2018-11-22T06:14:20.212Z,1008.75
2018-11-22T06:15:20.276Z,1008.72
2018-11-22T06:16:20.318Z,1008.70
2018-11-22T06:17:20.380Z,1008.69
2018-11-22T06:18:20.429Z,1008.70
2018-11-22T06:19:20.485Z,1008.69
2018-11-22T06:20:20.541Z,1008.70
2018-11-22T06:21:20.592Z,1008.70
2018-11-22T06:22:20.655Z,1008.72
2018-11-22T06:23:20.703Z,1008.73
2018-11-22T06:24:20.758Z,1008.76
2018-11-22T06:25:20.814Z,1008.76
2018-11-22T06:26:20.869Z,1008.71
2018-11-22T06:27:20.925Z,1008.72
2018-11-22T06:28:20.980Z,1008.70
2018-11-22T06:29:21.034Z,1008.70
2018-11-22T06:30:21.089Z,1008.67
2018-11-22T06:31:21.144Z,1008.70
2018-11-22T06:32:21.199Z,1008.71
2018-11-22T06:33:21.254Z,1008.72
2018-11-22T06:34:21.310Z,1008.70
2018-11-22T06:35:21.366Z,1008.67
2018-11-22T06:36:22.127Z,1008.72
2018-11-22T06:37:22.174Z,1008.71
2018-11-22T06:38:21.531Z,1008.66
2018-11-22T06:39:21.587Z,1008.70
2018-11-22T06:40:21.641Z,1008.72
2018-11-22T06:41:21.697Z,1008.70
2018-11-22T06:42:21.753Z,1008.72
2018-11-22T06:43:21.807Z,1008.73
2018-11-22T06:44:22.470Z,1008.71
2018-11-22T06:45:21.924Z,1008.73
2018-11-22T06:46:21.974Z,1008.73
2018-11-22T06:47:22.031Z,1008.71
2018-11-22T06:48:22.083Z,1008.73
2018-11-22T06:49:22.139Z,1008.73
2018-11-22T06:50:22.195Z,1008.75
2018-11-22T06:51:22.251Z,1008.72
2018-11-22T06:52:22.305Z,1008.77
2018-11-22T06:53:22.794Z,1008.76
2018-11-22T06:54:22.420Z,1008.76
2018-11-22T06:55:22.477Z,1008.76
2018-11-22T06:56:22.525Z,1008.76
2018-11-22T06:57:22.598Z,1008.73
2018-11-22T06:58:22.636Z,1008.74
2018-11-22T06:59:22.692Z,1008.72
2018-11-22T07:00:22.752Z,1008.73
2018-11-22T07:01:22.803Z,1008.74
2018-11-22T07:02:22.858Z,1008.77
2018-11-22T07:03:22.917Z,1008.80
2018-11-22T07:04:22.974Z,1008.82
2018-11-22T07:05:23.023Z,1008.81
2018-11-22T07:06:23.080Z,1008.78
2018-11-22T07:07:23.134Z,1008.78
2018-11-22T07:08:23.189Z,1008.81
2018-11-22T07:09:23.246Z,1008.86
2018-11-22T07:10:23.301Z,1008.86
2018-11-22T07:11:23.356Z,1008.90
2018-11-22T07:12:23.411Z,1008.90
2018-11-22T07:13:23.467Z,1008.89
2018-11-22T07:14:23.524Z,1008.91
2018-11-22T07:15:23.580Z,1008.93
2018-11-22T07:16:23.632Z,1008.87
2018-11-22T07:17:23.688Z,1008.93
2018-11-22T07:18:23.744Z,1008.93
2018-11-22T07:19:23.800Z,1008.89
2018-11-22T07:20:23.858Z,1008.88
2018-11-22T07:21:23.909Z,1008.93
2018-11-22T07:22:23.967Z,1008.90
2018-11-22T07:23:24.022Z,1008.89
2018-11-22T07:24:24.081Z,1008.92
2018-11-22T07:25:24.134Z,1008.92
2018-11-22T07:26:24.195Z,1008.93
2018-11-22T07:27:24.245Z,1008.97
2018-11-22T07:28:24.299Z,1008.95
2018-11-22T07:29:24.354Z,1009.02
2018-11-22T07:30:24.451Z,1009.01
2018-11-22T07:31:24.467Z,1009.00
2018-11-22T07:32:24.522Z,1009.01
2018-11-22T07:33:24.578Z,1009.04
2018-11-22T07:34:24.635Z,1009.06
2018-11-22T07:35:24.689Z,1009.03
2018-11-22T07:36:24.744Z,1009.04
2018-11-22T07:37:24.799Z,1009.08
2018-11-22T07:38:24.855Z,1009.07
2018-11-22T07:39:24.910Z,1009.09
2018-11-22T07:40:24.965Z,1009.06
2018-11-22T07:41:25.021Z,1009.09
2018-11-22T07:42:25.077Z,1009.13
2018-11-22T07:43:25.132Z,1009.10
2018-11-22T07:44:25.187Z,1009.11
2018-11-22T07:45:25.244Z,1009.10
2018-11-22T07:46:25.299Z,1009.08
2018-11-22T07:47:25.358Z,1009.11
2018-11-22T07:48:25.410Z,1009.09
2018-11-22T07:49:25.469Z,1009.10
2018-11-22T07:50:25.522Z,1009.09
2018-11-22T07:51:25.577Z,1009.06
2018-11-22T07:52:25.633Z,1009.08
2018-11-22T07:53:25.692Z,1009.03
2018-11-22T07:54:25.743Z,1009.03
2018-11-22T07:55:25.799Z,1009.11
2018-11-22T07:56:25.855Z,1009.09
2018-11-22T07:57:25.910Z,1009.08
2018-11-22T07:58:25.969Z,1009.11
2018-11-22T07:59:26.021Z,1009.09
2018-11-22T08:00:26.077Z,1009.14
2018-11-22T08:01:26.132Z,1009.09
2018-11-22T08:02:26.189Z,1009.10
2018-11-22T08:03:26.247Z,1009.10
2018-11-22T08:04:26.300Z,1009.08
2018-11-22T08:05:26.357Z,1009.06
2018-11-22T08:06:26.411Z,1009.13
2018-11-22T08:07:26.467Z,1009.11
2018-11-22T08:08:26.521Z,1009.16
2018-11-22T08:09:26.578Z,1009.13
2018-11-22T08:10:26.633Z,1009.14
2018-11-22T08:11:26.689Z,1009.08
2018-11-22T08:12:26.743Z,1009.12
2018-11-22T08:13:27.120Z,1009.12
2018-11-22T08:14:26.855Z,1009.08
2018-11-22T08:15:26.911Z,1009.15
2018-11-22T08:16:26.972Z,1009.17
2018-11-22T08:17:27.022Z,1009.15
2018-11-22T08:18:27.077Z,1009.13
2018-11-22T08:19:27.138Z,1009.12
2018-11-22T08:20:27.193Z,1009.13
2018-11-22T08:21:27.243Z,1009.17
2018-11-22T08:22:27.298Z,1009.15
2018-11-22T08:23:27.355Z,1009.11
2018-11-22T08:24:27.409Z,1009.14
2018-11-22T08:25:27.488Z,1009.13
2018-11-22T08:26:27.522Z,1009.18
2018-11-22T08:27:27.582Z,1009.15
2018-11-22T08:28:27.631Z,1009.20
2018-11-22T08:29:27.687Z,1009.22
2018-11-22T08:30:27.743Z,1009.23
2018-11-22T08:31:27.799Z,1009.25
2018-11-22T08:32:27.854Z,1009.21
2018-11-22T08:33:27.908Z,1009.26
2018-11-22T08:34:27.965Z,1009.30
2018-11-22T08:35:28.022Z,1009.29
2018-11-22T08:36:28.076Z,1009.27
2018-11-22T08:37:28.132Z,1009.28
2018-11-22T08:38:28.189Z,1009.29
2018-11-22T08:39:28.242Z,1009.30
2018-11-22T08:40:28.301Z,1009.31
2018-11-22T08:41:28.353Z,1009.31
2018-11-22T08:42:28.410Z,1009.29
2018-11-22T08:43:28.466Z,1009.30
2018-11-22T08:44:28.522Z,1009.34
2018-11-22T08:45:28.576Z,1009.31
2018-11-22T08:46:28.633Z,1009.33
2018-11-22T08:47:28.687Z,1009.34
2018-11-22T08:48:28.744Z,1009.38
2018-11-22T08:49:28.799Z,1009.38
2018-11-22T08:50:28.855Z,1009.39
2018-11-22T08:51:28.913Z,1009.42
2018-11-22T08:52:28.967Z,1009.41
2018-11-22T08:53:29.023Z,1009.41
2018-11-22T08:54:29.079Z,1009.42
2018-11-22T08:55:29.136Z,1009.42
2018-11-22T08:56:29.190Z,1009.41
2018-11-22T08:57:29.247Z,1009.44
2018-11-22T08:58:29.303Z,1009.48
2018-11-22T08:59:29.361Z,1009.49
2018-11-22T09:00:29.414Z,1009.49
2018-11-22T09:01:29.470Z,1009.52
2018-11-22T09:02:29.527Z,1009.48
2018-11-22T09:03:29.585Z,1009.55
2018-11-22T09:05:08.991Z,1009.52
2018-11-22T09:06:09.048Z,1009.53
2018-11-22T09:07:09.104Z,1009.53
2018-11-22T09:08:09.159Z,1009.53
2018-11-22T09:09:09.214Z,1009.54
2018-11-22T09:10:09.274Z,1009.53
2018-11-22T09:11:09.328Z,1009.55
2018-11-22T09:12:09.385Z,1009.52
2018-11-22T09:13:09.471Z,1009.54
2018-11-22T09:14:09.512Z,1009.50
2018-11-22T09:15:09.561Z,1009.52
2018-11-22T09:16:09.608Z,1009.51
2018-11-22T09:17:09.663Z,1009.58
2018-11-22T09:18:09.722Z,1009.57
2018-11-22T09:19:10.017Z,1009.53
2018-11-22T09:20:09.837Z,1009.55
2018-11-22T09:21:09.891Z,1009.54
2018-11-22T09:22:09.951Z,1009.58
2018-11-22T09:23:10.007Z,1009.54
2018-11-22T09:24:10.311Z,1009.52
2018-11-22T09:25:10.116Z,1009.53
2018-11-22T09:26:10.174Z,1009.53
2018-11-22T09:27:10.236Z,1009.49
2018-11-22T09:28:10.287Z,1009.54
2018-11-22T09:29:10.347Z,1009.55
2018-11-22T09:30:10.399Z,1009.55
2018-11-22T09:31:10.455Z,1009.63
2018-11-22T09:32:10.514Z,1009.60
2018-11-22T09:33:10.569Z,1009.64
2018-11-22T09:34:10.624Z,1009.64
2018-11-22T09:35:10.716Z,1009.65
2018-11-22T09:36:10.739Z,1009.66
2018-11-22T09:37:10.794Z,1009.66
2018-11-22T09:38:10.851Z,1009.65
2018-11-22T09:39:10.908Z,1009.67
2018-11-22T09:40:10.965Z,1009.66
2018-11-22T09:41:11.021Z,1009.69
2018-11-22T09:42:11.106Z,1009.69
2018-11-22T09:43:11.139Z,1009.74
2018-11-22T09:44:11.192Z,1009.74
2018-11-22T09:45:11.248Z,1009.74
2018-11-22T09:46:11.306Z,1009.79
2018-11-22T09:47:11.362Z,1009.77
2018-11-22T09:48:11.420Z,1009.76
2018-11-22T09:49:11.478Z,1009.77
2018-11-22T09:50:11.532Z,1009.74
2018-11-22T09:51:11.591Z,1009.71
2018-11-22T09:52:11.648Z,1009.73
2018-11-22T09:53:11.705Z,1009.74
2018-11-22T09:54:11.764Z,1009.70
2018-11-22T09:55:11.817Z,1009.74
2018-11-22T09:56:11.876Z,1009.73
2018-11-22T09:57:11.933Z,1009.72
2018-11-22T09:58:11.989Z,1009.73
2018-11-22T09:59:12.114Z,1009.69
2018-11-22T10:00:12.103Z,1009.69
2018-11-22T10:01:12.158Z,1009.67
2018-11-22T10:02:12.216Z,1009.71
2018-11-22T10:03:12.329Z,1009.73
2018-11-22T10:04:12.332Z,1009.76
2018-11-22T10:05:12.592Z,1009.78
2018-11-22T10:06:12.445Z,1009.75
2018-11-22T10:07:12.501Z,1009.75
2018-11-22T10:08:12.562Z,1009.77
2018-11-22T10:09:12.658Z,1009.74
2018-11-22T10:10:12.672Z,1009.76
2018-11-22T10:11:12.730Z,1009.77
2018-11-22T10:12:12.788Z,1009.78
2018-11-22T10:13:12.841Z,1009.76
2018-11-22T10:14:12.900Z,1009.78
2018-11-22T10:15:12.957Z,1009.76
2018-11-22T10:16:13.048Z,1009.75
2018-11-22T10:17:13.677Z,1009.80
2018-11-22T10:18:13.126Z,1009.80
2018-11-22T10:19:13.190Z,1009.79
2018-11-22T10:20:13.240Z,1009.75
2018-11-22T10:21:13.297Z,1009.76
2018-11-22T10:22:13.354Z,1009.74
2018-11-22T10:23:13.414Z,1009.71
2018-11-22T10:24:13.518Z,1009.76
2018-11-22T10:25:14.095Z,1009.74
2018-11-22T10:26:13.818Z,1009.72
2018-11-22T10:27:13.640Z,1009.72
2018-11-22T10:28:13.696Z,1009.73
2018-11-22T10:29:13.795Z,1009.75
2018-11-22T10:30:13.866Z,1009.76
2018-11-22T10:31:13.868Z,1009.76
2018-11-22T10:32:13.928Z,1009.78
2018-11-22T10:33:13.983Z,1009.82
2018-11-22T10:34:14.040Z,1009.78
2018-11-22T10:35:14.108Z,1009.78
2018-11-22T10:36:14.728Z,1009.81
2018-11-22T10:37:14.211Z,1009.80
2018-11-22T10:38:14.319Z,1009.80
2018-11-22T10:39:14.411Z,1009.80
2018-11-22T10:40:14.390Z,1009.80
2018-11-22T10:41:14.442Z,1009.83
2018-11-22T10:42:14.501Z,1009.81
2018-11-22T10:43:14.558Z,1009.84
2018-11-22T10:44:14.619Z,1009.85
2018-11-22T10:45:14.697Z,1009.78
2018-11-22T10:46:14.733Z,1009.81
2018-11-22T10:47:14.789Z,1009.82
2018-11-22T10:48:14.848Z,1009.82
2018-11-22T10:49:14.905Z,1009.76
2018-11-22T10:50:14.963Z,1009.75
2018-11-22T10:51:15.020Z,1009.68
2018-11-22T10:52:15.080Z,1009.73
2018-11-22T10:53:15.507Z,1009.71
2018-11-22T10:54:15.194Z,1009.68
2018-11-22T10:55:15.258Z,1009.68
2018-11-22T10:56:15.312Z,1009.68
2018-11-22T10:57:15.369Z,1009.68
2018-11-22T10:58:15.427Z,1009.70
2018-11-22T10:59:15.485Z,1009.69
2018-11-22T11:00:16.090Z,1009.72
2018-11-22T11:01:15.600Z,1009.70
2018-11-22T11:02:15.679Z,1009.70
2018-11-22T11:03:15.717Z,1009.74
2018-11-22T11:04:15.808Z,1009.67
2018-11-22T11:05:15.832Z,1009.67
2018-11-22T11:06:15.892Z,1009.68
2018-11-22T11:07:16.875Z,1009.65
2018-11-22T11:08:16.009Z,1009.68
2018-11-22T11:09:16.066Z,1009.67
2018-11-22T11:10:16.124Z,1009.66
2018-11-22T11:11:16.181Z,1009.66
2018-11-22T11:12:16.240Z,1009.67
2018-11-22T11:13:16.298Z,1009.67
2018-11-22T11:14:16.357Z,1009.70
2018-11-22T11:15:16.415Z,1009.61
2018-11-22T11:16:16.474Z,1009.64
2018-11-22T11:17:16.531Z,1009.67
2018-11-22T11:18:16.902Z,1009.66
2018-11-22T11:19:17.201Z,1009.64
2018-11-22T11:20:16.707Z,1009.67
2018-11-22T11:21:16.764Z,1009.66
2018-11-22T11:22:17.406Z,1009.60
2018-11-22T11:23:16.880Z,1009.64
2018-11-22T11:24:16.940Z,1009.60
2018-11-22T11:25:16.995Z,1009.61
2018-11-22T11:26:17.054Z,1009.60
2018-11-22T11:27:17.112Z,1009.58
2018-11-22T11:28:17.173Z,1009.64
2018-11-22T11:29:17.227Z,1009.61
2018-11-22T11:30:17.288Z,1009.65
2018-11-22T11:31:17.344Z,1009.65
2018-11-22T11:32:17.402Z,1009.65
2018-11-22T11:33:17.461Z,1009.62
2018-11-22T11:34:17.516Z,1009.58
2018-11-22T11:35:17.576Z,1009.62
2018-11-22T11:36:17.900Z,1009.61
2018-11-22T11:37:17.691Z,1009.61
2018-11-22T11:38:18.333Z,1009.67
2018-11-22T11:39:17.808Z,1009.93
2018-11-22T11:40:17.866Z,1009.99
2018-11-22T11:41:18.351Z,1009.81
2018-11-22T11:42:17.985Z,1009.78
2018-11-22T11:43:18.040Z,1009.75
2018-11-22T11:44:18.105Z,1009.72
2018-11-22T11:45:18.158Z,1009.79
2018-11-22T11:46:18.228Z,1009.90
2018-11-22T11:47:18.274Z,1009.97
2018-11-22T11:48:18.333Z,1009.98
2018-11-22T11:49:18.389Z,1009.96
2018-11-22T11:50:18.450Z,1009.91
2018-11-22T11:51:18.509Z,1009.95
2018-11-22T11:52:18.568Z,1009.89
2018-11-22T11:53:21.477Z,1009.87
2018-11-22T11:54:18.685Z,1009.81
2018-11-22T11:55:18.757Z,1009.84
2018-11-22T11:56:18.803Z,1009.77
2018-11-22T11:57:18.865Z,1009.77
2018-11-22T11:58:19.504Z,1009.75
2018-11-22T11:59:19.500Z,1009.81
2018-11-22T12:00:19.040Z,1009.86
2018-11-22T12:01:19.098Z,1009.86
2018-11-22T12:02:19.160Z,1009.83
2018-11-22T12:03:19.217Z,1009.73
2018-11-22T12:04:19.278Z,1009.72
2018-11-22T12:05:19.867Z,1009.66
2018-11-22T12:06:19.395Z,1009.75
2018-11-22T12:07:19.457Z,1009.53